createdAt,value
2022-09-07T00:00:06.024Z,18.41
2022-09-07T00:05:08.710Z,18.48
2022-09-07T00:10:10.421Z,18.29
2022-09-07T00:15:12.848Z,18.18
2022-09-07T00:20:15.105Z,17.95
2022-09-07T00:25:17.073Z,17.70
2022-09-07T00:30:18.774Z,17.85
2022-09-07T00:35:20.477Z,17.83
2022-09-07T00:40:22.145Z,17.90
2022-09-07T00:45:24.205Z,18.10
2022-09-07T00:50:35.178Z,18.27
2022-09-07T00:55:38.449Z,18.24
2022-09-07T01:00:41.771Z,18.14
2022-09-07T01:05:48.533Z,18.23
2022-09-07T01:10:50.293Z,18.35
2022-09-07T01:16:01.059Z,18.42
2022-09-07T01:21:14.431Z,18.27
2022-09-07T01:26:51.691Z,18.19
2022-09-07T01:32:05.409Z,18.30
2022-09-07T01:37:46.231Z,18.38
2022-09-07T01:43:04.445Z,18.36
2022-09-07T01:48:10.361Z,18.34
2022-09-07T01:53:17.962Z,18.35
2022-09-07T01:58:40.996Z,18.45
2022-09-07T02:03:46.895Z,18.52
2022-09-07T02:09:30.278Z,18.24
2022-09-07T02:14:41.502Z,18.30
2022-09-07T02:19:54.518Z,18.48
2022-09-07T02:25:00.044Z,18.39
2022-09-07T02:30:02.127Z,17.99
2022-09-07T02:35:04.972Z,17.89
2022-09-07T02:40:07.179Z,18.10
2022-09-07T02:45:12.021Z,18.12
2022-09-07T02:50:37.485Z,17.84
2022-09-07T02:55:45.609Z,17.79
2022-09-07T03:01:06.032Z,17.83
2022-09-07T03:06:32.614Z,17.89
2022-09-07T03:11:37.679Z,17.85
2022-09-07T03:16:39.675Z,17.88
2022-09-07T03:21:41.487Z,17.96
2022-09-07T03:26:46.813Z,17.91
2022-09-07T03:31:48.626Z,17.99
2022-09-07T03:36:50.401Z,18.21
2022-09-07T03:41:52.025Z,18.29
2022-09-07T03:46:53.759Z,18.37
2022-09-07T03:51:55.583Z,18.41
2022-09-07T03:56:57.385Z,18.30
2022-09-07T04:01:59.132Z,18.27
2022-09-07T04:07:00.870Z,18.17
2022-09-07T04:12:02.944Z,18.12
2022-09-07T04:17:04.681Z,18.15
2022-09-07T04:22:06.327Z,18.35
2022-09-07T04:27:08.051Z,18.37
2022-09-07T04:32:13.477Z,18.48
2022-09-07T04:37:17.313Z,18.42
2022-09-07T04:42:18.940Z,18.48
2022-09-07T04:47:20.671Z,18.54
2022-09-07T04:52:22.615Z,18.45
2022-09-07T04:57:26.538Z,18.46
2022-09-07T05:02:28.299Z,18.24
2022-09-07T05:07:30.059Z,18.18
2022-09-07T05:12:31.739Z,18.43
2022-09-07T05:17:33.447Z,18.48
2022-09-07T05:22:35.614Z,19.01
2022-09-07T05:27:37.302Z,18.89
2022-09-07T05:32:38.951Z,18.97
2022-09-07T05:37:40.971Z,19.07
2022-09-07T05:42:42.660Z,19.09
2022-09-07T05:47:44.313Z,19.01
2022-09-07T05:52:47.844Z,18.99
2022-09-07T05:57:49.808Z,19.17
2022-09-07T06:02:51.588Z,19.21
2022-09-07T06:07:53.303Z,19.20
2022-09-07T06:12:54.904Z,19.29
2022-09-07T06:17:56.627Z,19.41
2022-09-07T06:22:58.946Z,19.48
2022-09-07T06:28:00.891Z,19.43
2022-09-07T06:33:02.530Z,19.37
2022-09-07T06:38:04.294Z,19.34
2022-09-07T06:43:06.416Z,19.40
2022-09-07T06:48:08.079Z,19.53
2022-09-07T06:58:31.974Z,19.94
2022-09-07T07:03:34.506Z,20.13
2022-09-07T07:08:36.534Z,20.31
2022-09-07T07:13:40.233Z,20.48
2022-09-07T07:18:43.377Z,20.63
2022-09-07T07:23:49.327Z,20.74
2022-09-07T07:29:07.090Z,20.83
2022-09-07T07:34:09.119Z,20.85
2022-09-07T07:44:32.904Z,20.86
2022-09-07T07:49:34.561Z,20.80
2022-09-07T07:54:39.204Z,20.76
2022-09-07T07:59:40.802Z,20.78
2022-09-07T08:04:42.593Z,20.81
2022-09-07T08:09:46.143Z,20.84
2022-09-07T08:14:48.295Z,20.88
2022-09-07T08:19:50.989Z,21.05
2022-09-07T08:24:52.871Z,21.23
2022-09-07T08:29:54.935Z,21.41
2022-09-07T08:34:56.751Z,21.56
2022-09-07T08:39:58.556Z,21.60
2022-09-07T08:45:11.611Z,21.73
2022-09-07T08:50:29.341Z,21.77
2022-09-07T08:55:36.372Z,21.95
2022-09-07T09:00:39.663Z,22.19
2022-09-07T09:05:55.290Z,22.38
2022-09-07T09:11:03.051Z,22.62
2022-09-07T09:16:18.932Z,22.82
2022-09-07T09:21:20.969Z,23.11
2022-09-07T09:26:25.356Z,23.37
2022-09-07T09:31:35.171Z,23.64
2022-09-07T09:36:54.712Z,24.04
2022-09-07T09:41:59.794Z,24.39
2022-09-07T09:52:29.701Z,24.63
2022-09-07T10:08:58.886Z,24.56
2022-09-07T10:14:00.784Z,24.65
2022-09-07T10:19:03.190Z,24.73
2022-09-07T10:24:04.765Z,24.77
2022-09-07T10:29:15.238Z,24.80
2022-09-07T10:34:27.482Z,24.86
2022-09-07T10:39:43.658Z,24.75
2022-09-07T10:45:10.315Z,24.76
2022-09-07T10:50:32.929Z,24.98
2022-09-07T10:55:38.456Z,25.02
2022-09-07T11:01:09.813Z,25.08
2022-09-07T11:06:37.665Z,25.25
2022-09-07T11:17:27.517Z,25.69
2022-09-07T11:22:52.025Z,26.01
2022-09-07T11:28:20.108Z,26.32
2022-09-07T11:33:30.574Z,26.32
2022-09-07T11:38:39.406Z,26.35
2022-09-07T11:43:55.653Z,26.50
2022-09-07T11:48:58.355Z,26.47
2022-09-07T11:54:17.232Z,26.61
2022-09-07T11:59:38.217Z,26.81
2022-09-07T12:05:02.752Z,27.01
2022-09-07T12:10:36.531Z,27.09
2022-09-07T12:15:57.193Z,27.16
2022-09-07T12:20:59.302Z,27.31
2022-09-07T12:26:35.640Z,27.55
2022-09-07T12:31:59.836Z,27.98
2022-09-07T12:37:12.460Z,28.31
2022-09-07T12:42:37.971Z,28.45
2022-09-07T12:47:40.427Z,28.68
2022-09-07T12:52:48.700Z,28.60
2022-09-07T12:58:17.329Z,28.44
2022-09-07T13:03:51.819Z,28.55
2022-09-07T13:08:54.119Z,28.61
2022-09-07T13:14:14.345Z,28.29
2022-09-07T13:20:02.572Z,28.44
2022-09-07T13:25:23.647Z,28.72
2022-09-07T13:30:36.353Z,28.96
2022-09-07T13:35:39.030Z,29.13
2022-09-07T13:40:46.561Z,29.03
2022-09-07T13:45:53.999Z,29.36
2022-09-07T13:51:23.937Z,29.41
2022-09-07T13:56:37.439Z,29.52
2022-09-07T14:01:45.005Z,29.40
2022-09-07T14:06:46.665Z,29.18
2022-09-07T14:11:54.096Z,29.41
2022-09-07T14:17:02.471Z,29.63
2022-09-07T14:22:14.350Z,29.78
2022-09-07T14:27:37.637Z,29.71
2022-09-07T14:32:39.284Z,29.59
2022-09-07T14:37:41.706Z,29.95
2022-09-07T14:42:43.379Z,29.89
2022-09-07T14:47:47.186Z,29.89
2022-09-07T14:58:15.483Z,29.32
2022-09-07T15:03:33.791Z,29.08
2022-09-07T15:08:38.683Z,29.08
2022-09-07T15:13:44.970Z,29.20
2022-09-07T15:18:54.397Z,28.99
2022-09-07T15:23:58.493Z,29.23
2022-09-07T15:29:15.481Z,29.27
2022-09-07T15:34:19.703Z,29.60
2022-09-07T15:39:25.248Z,29.81
2022-09-07T15:44:28.569Z,29.70
2022-09-07T15:49:30.295Z,29.80
2022-09-07T15:54:35.089Z,29.99
2022-09-07T15:59:38.754Z,30.15
2022-09-07T16:04:41.188Z,30.26
2022-09-07T16:09:43.376Z,30.24
2022-09-07T16:14:45.254Z,29.96
2022-09-07T16:19:46.895Z,28.89
2022-09-07T16:24:48.849Z,28.25
2022-09-07T16:29:51.614Z,27.78
2022-09-07T16:34:53.318Z,27.19
2022-09-07T16:39:55.159Z,26.80
2022-09-07T16:46:02.544Z,26.18
2022-09-07T16:50:18.535Z,25.52
2022-09-07T16:55:20.666Z,25.30
2022-09-07T17:00:22.361Z,25.08
2022-09-07T17:05:24.083Z,24.84
2022-09-07T17:10:26.140Z,24.61
2022-09-07T17:15:27.776Z,24.35
2022-09-07T17:20:29.430Z,24.16
2022-09-07T17:25:33.200Z,23.90
2022-09-07T17:30:35.402Z,23.62
2022-09-07T17:35:37.522Z,23.56
2022-09-07T17:40:39.232Z,23.42
2022-09-07T17:45:40.955Z,23.07
2022-09-07T17:50:42.773Z,22.87
2022-09-07T17:55:44.884Z,22.82
2022-09-07T18:00:47.457Z,22.60
2022-09-07T18:05:53.734Z,22.34
2022-09-07T18:16:32.735Z,21.83
2022-09-07T18:21:36.552Z,21.83
2022-09-07T18:26:41.221Z,21.78
2022-09-07T18:31:42.978Z,21.52
2022-09-07T18:36:44.734Z,21.47
2022-09-07T18:41:46.549Z,21.59
2022-09-07T18:46:48.170Z,21.49
2022-09-07T18:57:11.890Z,21.44
2022-09-07T19:02:14.258Z,21.32
2022-09-07T19:07:16.005Z,21.17
2022-09-07T19:12:17.582Z,21.02
2022-09-07T19:17:19.315Z,20.99
2022-09-07T19:22:20.981Z,20.72
2022-09-07T19:27:22.604Z,20.58
2022-09-07T19:32:25.525Z,20.76
2022-09-07T19:37:28.881Z,20.88
2022-09-07T19:42:30.750Z,20.89
2022-09-07T19:47:33.619Z,20.76
2022-09-07T19:52:35.314Z,20.49
2022-09-07T19:57:37.260Z,20.15
2022-09-07T20:02:39.557Z,19.96
2022-09-07T20:07:41.307Z,19.89
2022-09-07T20:12:43.147Z,19.91
2022-09-07T20:17:47.013Z,19.94
2022-09-07T20:22:49.057Z,20.12
2022-09-07T20:27:51.243Z,20.29
2022-09-07T20:32:53.081Z,20.41
2022-09-07T20:37:54.891Z,20.43
2022-09-07T20:43:06.005Z,20.52
2022-09-07T20:48:07.912Z,20.43
2022-09-07T20:53:09.589Z,20.46
2022-09-07T20:58:11.522Z,20.53
2022-09-07T21:03:14.609Z,20.45
2022-09-07T21:08:16.560Z,20.25
2022-09-07T21:13:18.245Z,20.18
2022-09-07T21:18:19.878Z,20.13
2022-09-07T21:23:22.042Z,19.92
2022-09-07T21:28:24.570Z,19.85
2022-09-07T21:33:27.698Z,20.01
2022-09-07T21:38:29.442Z,20.16
2022-09-07T21:43:31.225Z,20.28
2022-09-07T21:48:33.231Z,20.34
2022-09-07T21:53:35.322Z,20.42
2022-09-07T21:58:37.064Z,20.59
2022-09-07T22:03:40.368Z,20.34
2022-09-07T22:08:42.524Z,20.09
2022-09-07T22:13:44.694Z,20.13
2022-09-07T22:18:46.592Z,20.34
2022-09-07T22:23:50.977Z,20.43
2022-09-07T22:28:53.102Z,20.45
2022-09-07T22:33:56.760Z,20.53
2022-09-07T22:39:00.549Z,20.52
2022-09-07T22:44:02.830Z,20.54
2022-09-07T22:49:05.819Z,20.56
2022-09-07T22:54:08.420Z,20.52
2022-09-07T22:59:10.446Z,20.47
2022-09-07T23:04:13.248Z,20.46
2022-09-07T23:09:17.383Z,20.41
2022-09-07T23:14:22.100Z,20.26
2022-09-07T23:19:23.860Z,20.19
2022-09-07T23:24:25.499Z,20.05
2022-09-07T23:29:27.122Z,19.82
2022-09-07T23:34:28.716Z,19.64
2022-09-07T23:39:30.458Z,19.41
2022-09-07T23:44:32.070Z,19.33
2022-09-07T23:49:33.600Z,19.13
2022-09-07T23:54:35.263Z,19.00
2022-09-07T23:59:36.947Z,18.97
